Time;durP1;ratioP1;P1;durP2;ratioP2;P2;SDS_P1;SDS_P2;PMS_P1;PMS_P2;Temp;Humidity;BMP_temperature;BMP_pressure;BME280_temperature;BME280_humidity;BME280_pressure;Samples;Min_cycle;Max_cycle;Signal;HPM_P1;HPM_P2
2023/09/07 00:02:12;;;;;;;5.05;3.50;;;;;;;-148.88;98.54;-17125.47;4935942;29;20027;-86
2023/09/07 00:04:37;;;;;;;4.28;3.05;;;;;;;-148.88;98.99;-17125.47;4936865;29;20034;-86
2023/09/07 00:07:03;;;;;;;4.53;3.20;;;;;;;-148.88;98.66;-17125.47;4936841;29;20486;-86
2023/09/07 00:09:28;;;;;;;5.13;3.45;;;;;;;-148.88;99.08;-17125.47;4936719;29;20024;-86
2023/09/07 00:11:53;;;;;;;7.22;3.35;;;;;;;-148.88;98.45;-17125.47;4936944;29;20471;-87
2023/09/07 00:14:19;;;;;;;6.00;3.65;;;;;;;-148.88;98.30;-17125.47;4935271;29;20470;-87
2023/09/07 00:16:44;;;;;;;5.38;3.72;;;;;;;-148.88;98.34;-17125.47;4936738;29;20027;-87
2023/09/07 00:19:09;;;;;;;6.97;3.50;;;;;;;-148.88;97.93;-17125.47;4936024;29;20032;-87
2023/09/07 00:21:35;;;;;;;5.38;3.22;;;;;;;-148.88;97.98;-17125.47;4936439;29;20051;-87
2023/09/07 00:24:05;;;;;;;4.75;3.40;;;;;;;-148.88;98.13;-17125.47;4936451;29;20386;-87
2023/09/07 00:26:30;;;;;;;7.45;3.35;;;;;;;-148.88;98.74;-17125.47;4937162;29;20467;-88
2023/09/07 00:28:56;;;;;;;6.18;3.28;;;;;;;-148.88;99.21;-17125.47;4938546;29;20059;-89
2023/09/07 00:31:21;;;;;;;5.28;3.40;;;;;;;-148.88;99.06;-17125.47;4937918;29;20364;-88
2023/09/07 00:33:46;;;;;;;4.72;3.30;;;;;;;-148.88;99.31;-17125.47;4937925;29;20071;-88
2023/09/07 00:36:12;;;;;;;7.78;3.70;;;;;;;-148.88;99.50;-17125.47;4937269;29;20099;-88
2023/09/07 00:38:37;;;;;;;5.68;3.45;;;;;;;-148.88;99.01;-17125.47;4937941;29;20028;-89
2023/09/07 00:41:02;;;;;;;6.18;3.22;;;;;;;-148.88;100.00;-17125.47;4941747;29;20036;-89
2023/09/07 00:43:28;;;;;;;6.90;3.45;;;;;;;-148.88;100.00;-17125.47;4943115;29;20035;-89
2023/09/07 00:45:54;;;;;;;6.93;3.75;;;;;;;-148.88;100.00;-17125.47;4938483;29;20064;-90
2023/09/07 00:48:20;;;;;;;5.68;3.55;;;;;;;-148.88;100.00;-17125.47;4940262;29;20027;-87
2023/09/07 00:50:45;;;;;;;6.43;3.45;;;;;;;-148.88;100.00;-17125.47;4937226;29;20083;-85
2023/09/07 00:53:11;;;;;;;6.07;3.53;;;;;;;-148.88;100.00;-17125.47;4937358;29;20031;-85
2023/09/07 00:55:37;;;;;;;4.85;3.47;;;;;;;-148.88;100.00;-17125.47;4936973;29;20034;-84
2023/09/07 00:58:07;;;;;;;4.72;3.50;;;;;;;-148.88;100.00;-17125.47;4938558;29;20062;-86
2023/09/07 01:00:34;;;;;;;5.78;3.88;;;;;;;-148.88;100.00;-17125.47;4938050;29;20035;-84
2023/09/07 01:03:01;;;;;;;7.15;3.53;;;;;;;-148.88;100.00;-17125.47;4961997;23;20498;-73
2023/09/07 01:05:46;;;;;;;6.28;3.67;;;;;;;-148.88;100.00;-17125.47;4953540;29;20174;-73
2023/09/07 01:08:29;;;;;;;3.90;3.30;;;;;;;-148.88;100.00;-17125.47;4953415;28;20047;-72
2023/09/07 01:10:54;;;;;;;4.20;3.00;;;;;;;-148.88;100.00;-17125.47;4953845;28;20025;-73
2023/09/07 01:13:20;;;;;;;5.90;3.65;;;;;;;-148.88;100.00;-17125.47;4953535;28;20030;-73
2023/09/07 01:15:46;;;;;;;5.47;3.45;;;;;;;-148.88;100.00;-17125.47;4954145;28;20027;-71
2023/09/07 01:18:13;;;;;;;6.18;4.07;;;;;;;-148.88;100.00;-17125.47;4957190;28;20497;-71
2023/09/07 01:20:41;;;;;;;4.20;3.58;;;;;;;-148.88;100.00;-17125.47;4957155;28;20062;-72
2023/09/07 01:23:09;;;;;;;5.60;3.75;;;;;;;-148.88;100.00;-17125.47;4955612;29;20030;-73
2023/09/07 01:25:37;;;;;;;5.07;3.72;;;;;;;-148.88;100.00;-17125.47;4955780;29;20549;-72
2023/09/07 01:28:03;;;;;;;7.72;3.55;;;;;;;-148.88;100.00;-17125.47;4956994;28;20034;-72
2023/09/07 01:30:29;;;;;;;6.95;3.88;;;;;;;-148.88;100.00;-17125.47;4956848;28;20115;-72
2023/09/07 01:32:55;;;;;;;6.78;4.22;;;;;;;-148.88;100.00;-17125.47;4955447;29;20049;-73
2023/09/07 01:35:22;;;;;;;6.47;3.97;;;;;;;-148.88;100.00;-17125.47;4955393;29;20033;-72
2023/09/07 01:37:48;;;;;;;5.88;3.78;;;;;;;-148.88;100.00;-17125.47;4956617;28;20031;-73
2023/09/07 01:40:14;;;;;;;6.72;4.07;;;;;;;-148.88;100.00;-17125.47;4956655;28;20055;-73
2023/09/07 01:42:39;;;;;;;6.00;4.18;;;;;;;-148.88;100.00;-17125.47;4956652;28;20525;-73
2023/09/07 01:45:06;;;;;;;5.85;4.05;;;;;;;-148.88;100.00;-17125.47;4956880;29;20107;-72
2023/09/07 01:47:32;;;;;;;7.50;4.53;;;;;;;-148.88;100.00;-17125.47;4955105;28;20055;-72
2023/09/07 01:49:58;;;;;;;5.43;4.00;;;;;;;-148.88;100.00;-17125.47;4956820;28;20058;-73
2023/09/07 01:52:24;;;;;;;5.43;3.60;;;;;;;-148.88;100.00;-17125.47;4956485;28;20027;-73
2023/09/07 01:54:50;;;;;;;4.57;3.83;;;;;;;-148.88;100.00;-17125.47;4955052;29;20443;-72
2023/09/07 01:57:16;;;;;;;8.20;4.22;;;;;;;-148.88;100.00;-17125.47;4956293;28;20462;-72
2023/09/07 01:59:42;;;;;;;6.03;3.90;;;;;;;-148.88;100.00;-17125.47;4956329;28;20027;-73
2023/09/07 02:02:07;;;;;;;7.53;3.90;;;;;;;-148.88;100.00;-17125.47;4956197;28;20106;-73
2023/09/07 02:04:33;;;;;;;6.53;4.07;;;;;;;-148.88;100.00;-17125.47;4956376;28;20023;-73
2023/09/07 02:06:58;;;;;;;8.95;4.30;;;;;;;-148.88;100.00;-17125.47;4956605;29;20074;-72
2023/09/07 02:09:23;;;;;;;5.10;4.00;;;;;;;-148.88;100.00;-17125.47;4956328;28;20058;-73
2023/09/07 02:11:49;;;;;;;6.40;4.15;;;;;;;-148.88;100.00;-17125.47;4954981;29;20027;-73
2023/09/07 02:14:15;;;;;;;8.07;4.28;;;;;;;-148.88;100.00;-17125.47;4956060;28;20126;-72
2023/09/07 02:16:41;;;;;;;6.85;4.50;;;;;;;-148.88;100.00;-17125.47;4956041;28;20031;-72
2023/09/07 02:19:07;;;;;;;8.25;5.00;;;;;;;-148.88;100.00;-17125.47;4955991;28;20027;-73
2023/09/07 02:21:32;;;;;;;4.80;4.10;;;;;;;-148.88;100.00;-17125.47;4956024;28;20038;-72
2023/09/07 02:23:58;;;;;;;5.68;4.63;;;;;;;-148.88;100.00;-17125.47;4956029;29;20016;-73
2023/09/07 02:26:24;;;;;;;5.85;4.55;;;;;;;-148.88;100.00;-17125.47;4956288;28;20038;-73
2023/09/07 02:28:49;;;;;;;6.28;4.50;;;;;;;-148.88;100.00;-17125.47;4955433;28;20027;-73
2023/09/07 02:31:14;;;;;;;8.10;4.50;;;;;;;-148.88;100.00;-17125.47;4955841;28;20019;-72
2023/09/07 02:33:40;;;;;;;5.82;4.72;;;;;;;-148.88;100.00;-17125.47;4955730;29;20027;-72
2023/09/07 02:36:05;;;;;;;5.45;4.63;;;;;;;-148.88;100.00;-17125.47;4955849;28;20056;-72
2023/09/07 02:38:31;;;;;;;6.43;4.82;;;;;;;-148.88;100.00;-17125.47;4955649;28;20038;-72
2023/09/07 02:40:57;;;;;;;6.20;4.80;;;;;;;-148.88;100.00;-17125.47;4955631;29;20027;-73
2023/09/07 02:43:22;;;;;;;5.97;4.65;;;;;;;-148.88;100.00;-17125.47;4955634;28;20030;-73
2023/09/07 02:45:51;;;;;;;7.07;4.85;;;;;;;-148.88;100.00;-17125.47;4955634;28;20094;-72
2023/09/07 02:48:16;;;;;;;6.70;4.82;;;;;;;-148.88;100.00;-17125.47;4955496;28;20125;-73
2023/09/07 02:50:42;;;;;;;5.90;4.80;;;;;;;-148.88;100.00;-17125.47;4955461;29;20057;-73
2023/09/07 02:53:08;;;;;;;6.40;4.45;;;;;;;-148.88;100.00;-17125.47;4955559;29;20027;-72
2023/09/07 02:55:34;;;;;;;7.28;4.82;;;;;;;-148.88;100.00;-17125.47;4955482;28;20397;-73
2023/09/07 02:58:02;;;;;;;6.13;4.72;;;;;;;-148.88;100.00;-17125.47;4955196;28;20478;-72
2023/09/07 03:00:28;;;;;;;7.72;5.47;;;;;;;-148.88;100.00;-17125.47;4954112;29;20031;-73
2023/09/07 03:02:53;;;;;;;5.45;4.32;;;;;;;-148.88;100.00;-17125.47;4955228;29;20037;-73
2023/09/07 03:05:18;;;;;;;7.65;4.82;;;;;;;-148.88;100.00;-17125.47;4955187;29;20118;-73
2023/09/07 03:07:46;;;;;;;9.00;4.45;;;;;;;-148.88;100.00;-17125.47;4955416;28;20054;-72
2023/09/07 03:10:11;;;;;;;9.07;5.18;;;;;;;-148.88;100.00;-17125.47;4953664;28;20027;-73
2023/09/07 03:12:36;;;;;;;6.97;4.63;;;;;;;-148.88;100.00;-17125.47;4955042;29;20034;-73
2023/09/07 03:15:03;;;;;;;7.95;5.15;;;;;;;-148.88;100.00;-17125.47;4954915;29;20027;-74
2023/09/07 03:17:29;;;;;;;7.80;5.82;;;;;;;-148.88;100.00;-17125.47;4954782;28;20110;-73
2023/09/07 03:19:54;;;;;;;7.18;5.80;;;;;;;-148.88;100.00;-17125.47;4953583;29;20058;-72
2023/09/07 03:22:20;;;;;;;7.60;6.18;;;;;;;-148.88;100.00;-17125.47;4955030;29;20029;-73
2023/09/07 03:24:45;;;;;;;9.43;6.32;;;;;;;-148.88;100.00;-17125.47;4953440;29;20032;-72
2023/09/07 03:27:11;;;;;;;9.65;6.20;;;;;;;-148.88;100.00;-17125.47;4953212;28;20031;-72
2023/09/07 03:29:36;;;;;;;8.38;6.07;;;;;;;-148.88;100.00;-17125.47;4953321;28;20070;-73
2023/09/07 03:32:02;;;;;;;7.78;6.28;;;;;;;-148.88;100.00;-17125.47;4954653;29;20086;-73
2023/09/07 03:34:28;;;;;;;6.85;5.70;;;;;;;-148.88;100.00;-17125.47;4954650;28;20027;-72
2023/09/07 03:36:53;;;;;;;7.95;5.45;;;;;;;-148.88;100.00;-17125.47;4954748;28;20019;-73
2023/09/07 03:39:21;;;;;;;8.00;5.85;;;;;;;-148.88;100.00;-17125.47;4954011;28;20062;-73
2023/09/07 03:41:46;;;;;;;7.22;5.50;;;;;;;-148.88;100.00;-17125.47;4953363;29;20027;-73
2023/09/07 03:44:12;;;;;;;6.80;5.80;;;;;;;-148.88;100.00;-17125.47;4954472;28;20324;-73
2023/09/07 03:46:37;;;;;;;6.82;5.95;;;;;;;-148.88;100.00;-17125.47;4953306;29;20383;-73
2023/09/07 03:49:02;;;;;;;8.15;5.40;;;;;;;-148.88;100.00;-17125.47;4954423;28;20517;-73
2023/09/07 03:51:28;;;;;;;6.95;5.60;;;;;;;-148.88;100.00;-17125.47;4954558;28;20478;-72
2023/09/07 03:53:54;;;;;;;8.00;5.82;;;;;;;-148.88;100.00;-17125.47;4954398;28;20039;-74
2023/09/07 03:56:19;;;;;;;7.57;5.75;;;;;;;-148.88;100.00;-17125.47;4954664;29;20031;-73
2023/09/07 03:58:47;;;;;;;8.35;5.90;;;;;;;-148.88;100.00;-17125.47;4954468;28;20027;-73
2023/09/07 04:01:13;;;;;;;14.35;5.95;;;;;;;-148.88;100.00;-17125.47;4953177;29;20319;-72
2023/09/07 04:03:40;;;;;;;8.70;5.95;;;;;;;-148.88;100.00;-17125.47;4954198;28;20394;-73
2023/09/07 04:06:05;;;;;;;7.53;5.55;;;;;;;-148.88;100.00;-17125.47;4954372;28;20027;-73
2023/09/07 04:08:31;;;;;;;8.18;5.75;;;;;;;-148.88;100.00;-17125.47;4952857;28;20038;-73
2023/09/07 04:10:56;;;;;;;6.63;5.57;;;;;;;-148.88;100.00;-17125.47;4952819;29;20027;-74
2023/09/07 04:13:21;;;;;;;9.02;6.78;;;;;;;-148.88;100.00;-17125.47;4954045;29;20029;-73
2023/09/07 04:15:47;;;;;;;9.30;6.60;;;;;;;-148.88;100.00;-17125.47;4952795;29;20115;-73
2023/09/07 04:18:15;;;;;;;8.13;6.55;;;;;;;-148.88;100.00;-17125.47;4953857;28;20024;-73
2023/09/07 04:20:40;;;;;;;8.25;6.57;;;;;;;-148.88;100.00;-17125.47;4953015;29;20347;-73
2023/09/07 04:23:06;;;;;;;8.23;6.28;;;;;;;-148.88;100.00;-17125.47;4954010;28;20474;-73
2023/09/07 04:25:32;;;;;;;9.55;6.43;;;;;;;-148.88;100.00;-17125.47;4952644;29;20027;-73
2023/09/07 04:27:58;;;;;;;7.40;6.32;;;;;;;-148.88;100.00;-17125.47;4952859;28;20169;-73
2023/09/07 04:30:24;;;;;;;6.80;6.10;;;;;;;-148.88;100.00;-17125.47;4953942;28;20384;-73
2023/09/07 04:32:49;;;;;;;9.43;7.00;;;;;;;-148.88;100.00;-17125.47;4952682;28;20596;-73
2023/09/07 04:35:15;;;;;;;9.25;7.00;;;;;;;-148.88;100.00;-17125.47;4952449;29;20027;-75
2023/09/07 04:37:44;;;;;;;7.20;5.93;;;;;;;-148.88;100.00;-17125.47;4952702;28;20471;-74
2023/09/07 04:40:10;;;;;;;10.02;6.18;;;;;;;-148.88;100.00;-17125.47;4952566;29;20019;-73
2023/09/07 04:42:35;;;;;;;8.98;6.75;;;;;;;-148.88;100.00;-17125.47;4953870;28;20099;-74
2023/09/07 04:45:01;;;;;;;11.00;6.80;;;;;;;-148.88;100.00;-17125.47;4953840;28;20035;-74
2023/09/07 04:47:26;;;;;;;8.75;6.40;;;;;;;-148.88;100.00;-17125.47;4953446;28;20070;-73
2023/09/07 04:49:52;;;;;;;8.05;6.88;;;;;;;-148.88;100.00;-17125.47;4953507;28;20070;-74
2023/09/07 04:52:17;;;;;;;8.65;6.90;;;;;;;-148.88;100.00;-17125.47;4956729;28;20028;-74
2023/09/07 04:54:43;;;;;;;7.97;6.57;;;;;;;-148.88;100.00;-17125.47;4957307;28;20059;-74
2023/09/07 04:57:09;;;;;;;7.72;6.22;;;;;;;-148.88;100.00;-17125.47;4957234;28;20031;-74
2023/09/07 04:59:34;;;;;;;10.68;6.70;;;;;;;-148.88;100.00;-17125.47;4955763;29;20046;-74
2023/09/07 05:02:01;;;;;;;9.90;6.85;;;;;;;-148.88;100.00;-17125.47;4957329;29;20031;-74
2023/09/07 05:04:27;;;;;;;9.98;6.53;;;;;;;-148.88;100.00;-17125.47;4957185;28;20023;-74
2023/09/07 05:06:53;;;;;;;8.82;6.43;;;;;;;-148.88;100.00;-17125.47;4956996;28;20034;-74
2023/09/07 05:09:20;;;;;;;7.80;6.47;;;;;;;-148.88;100.00;-17125.47;4955473;28;20399;-74
2023/09/07 05:11:45;;;;;;;8.05;6.82;;;;;;;-148.88;100.00;-17125.47;4955550;29;20034;-75
2023/09/07 05:14:11;;;;;;;8.65;6.55;;;;;;;-148.88;100.00;-17125.47;4956973;28;20027;-74
2023/09/07 05:16:36;;;;;;;7.47;6.07;;;;;;;-148.88;100.00;-17125.47;4956765;28;20111;-74
2023/09/07 05:19:02;;;;;;;8.65;6.05;;;;;;;-148.88;100.00;-17125.47;4956904;28;20031;-74
2023/09/07 05:21:27;;;;;;;6.88;6.05;;;;;;;-148.88;100.00;-17125.47;4955457;29;20193;-75
2023/09/07 05:23:53;;;;;;;11.90;6.15;;;;;;;-148.88;100.00;-17125.47;4956837;28;20047;-74
2023/09/07 05:26:23;;;;;;;9.00;6.32;;;;;;;-148.88;100.00;-17125.47;4955373;29;20398;-74
2023/09/07 05:28:49;;;;;;;9.18;6.13;;;;;;;-148.88;100.00;-17125.47;4956534;28;20034;-75
2023/09/07 05:31:15;;;;;;;8.60;6.32;;;;;;;-148.88;100.00;-17125.47;4956614;28;20031;-75
2023/09/07 05:33:40;;;;;;;8.50;6.80;;;;;;;-148.88;100.00;-17125.47;4955061;29;20035;-74
2023/09/07 05:36:06;;;;;;;9.00;7.10;;;;;;;-148.88;100.00;-17125.47;4956655;28;20482;-74
2023/09/07 05:38:31;;;;;;;9.77;6.40;;;;;;;-148.88;100.00;-17125.47;4956555;28;20027;-75
2023/09/07 05:40:56;;;;;;;9.20;7.35;;;;;;;-148.88;100.00;-17125.47;4956515;28;20082;-74
2023/09/07 05:43:24;;;;;;;9.65;7.63;;;;;;;-148.88;100.00;-17125.47;4956548;28;20047;-74
2023/09/07 05:45:49;;;;;;;10.07;7.22;;;;;;;-148.88;100.00;-17125.47;4956727;28;20027;-74
2023/09/07 05:48:18;;;;;;;9.30;7.13;;;;;;;-148.88;100.00;-17125.47;4955070;28;20031;-74
2023/09/07 05:50:44;;;;;;;13.05;7.32;;;;;;;-148.88;100.00;-17125.47;4956560;28;20038;-74
2023/09/07 05:53:09;;;;;;;8.77;7.43;;;;;;;-148.88;100.00;-17125.47;4956306;28;20121;-74
2023/09/07 05:55:35;;;;;;;10.27;7.43;;;;;;;-148.88;100.00;-17125.47;4956244;28;20438;-74
2023/09/07 05:58:04;;;;;;;9.23;7.40;;;;;;;-148.88;100.00;-17125.47;4954961;28;20030;-73
2023/09/07 06:00:30;;;;;;;9.73;7.38;;;;;;;-148.88;100.00;-17125.47;4956089;28;20372;-72
2023/09/07 06:02:56;;;;;;;11.98;7.80;;;;;;;-148.88;100.00;-17125.47;4953486;28;20154;-74
2023/09/07 06:05:22;;;;;;;10.00;7.53;;;;;;;-148.88;100.00;-17125.47;4954627;29;20079;-74
2023/09/07 06:07:47;;;;;;;11.40;7.40;;;;;;;-148.88;100.00;-17125.47;4955848;28;20053;-73
2023/09/07 06:10:13;;;;;;;11.57;7.30;;;;;;;-148.88;100.00;-17125.47;4954567;28;20046;-73
2023/09/07 06:12:39;;;;;;;10.32;7.28;;;;;;;-148.88;100.00;-17125.47;4955731;28;20407;-74
2023/09/07 06:15:05;;;;;;;10.10;7.18;;;;;;;-148.88;100.00;-17125.47;4955717;28;20038;-73
2023/09/07 06:17:30;;;;;;;8.32;6.95;;;;;;;-148.88;100.00;-17125.47;4954238;28;20062;-73
2023/09/07 06:19:56;;;;;;;7.55;6.55;;;;;;;-148.88;100.00;-17125.47;4955932;29;20058;-73
2023/09/07 06:22:22;;;;;;;11.68;7.57;;;;;;;-148.88;100.00;-17125.47;4956289;28;20038;-73
2023/09/07 06:24:48;;;;;;;12.45;7.85;;;;;;;-148.88;100.00;-17125.47;4956163;28;20030;-73
2023/09/07 06:27:14;;;;;;;8.00;7.18;;;;;;;-148.88;100.00;-17125.47;4954690;28;20019;-73
2023/09/07 06:29:40;;;;;;;8.45;7.55;;;;;;;-148.88;100.00;-17125.47;4956024;29;20497;-73
2023/09/07 06:32:05;;;;;;;7.72;6.93;;;;;;;-148.88;100.00;-17125.47;4954656;29;20061;-74
2023/09/07 06:34:31;;;;;;;8.63;7.03;;;;;;;-148.88;100.00;-17125.47;4955948;28;20106;-74
2023/09/07 06:36:56;;;;;;;11.45;7.72;;;;;;;-148.88;100.00;-17125.47;4954534;29;20505;-73
2023/09/07 06:39:21;;;;;;;9.70;7.40;;;;;;;-148.88;100.00;-17125.47;4954675;28;20038;-73
2023/09/07 06:41:47;;;;;;;8.23;6.80;;;;;;;-148.88;100.00;-17125.47;4955844;28;20027;-73
2023/09/07 06:44:13;;;;;;;7.95;7.07;;;;;;;-148.88;100.00;-17125.47;4955824;28;20031;-73
2023/09/07 06:46:39;;;;;;;8.73;6.95;;;;;;;-148.88;100.00;-17125.47;4955660;28;20027;-73
2023/09/07 06:49:04;;;;;;;12.57;7.32;;;;;;;-148.88;100.00;-17125.47;4954348;28;20033;-73
2023/09/07 06:51:30;;;;;;;11.20;7.75;;;;;;;-148.88;100.00;-17125.47;4955865;29;20027;-73
2023/09/07 06:53:56;;;;;;;12.05;7.95;;;;;;;-148.88;100.00;-17125.47;4955477;28;20493;-73
2023/09/07 06:56:22;;;;;;;9.77;7.82;;;;;;;-148.88;100.00;-17125.47;4955649;29;20061;-73
2023/09/07 06:58:47;;;;;;;9.43;7.18;;;;;;;-148.88;100.00;-17125.47;4956099;28;20019;-73
2023/09/07 07:01:13;;;;;;;8.63;7.68;;;;;;;-148.88;100.00;-17125.47;4955539;29;20413;-73
2023/09/07 07:03:38;;;;;;;10.65;7.70;;;;;;;-148.88;100.00;-17125.47;4953982;29;20028;-73
2023/09/07 07:06:04;;;;;;;10.05;6.95;;;;;;;-148.88;100.00;-17125.47;4955348;29;20027;-73
2023/09/07 07:08:29;;;;;;;11.35;7.57;;;;;;;-148.88;100.00;-17125.47;4953943;28;20019;-74
2023/09/07 07:10:55;;;;;;;9.98;7.57;;;;;;;-148.88;100.00;-17125.47;4955365;29;20030;-73
2023/09/07 07:13:20;;;;;;;10.80;7.00;;;;;;;-148.88;100.00;-17125.47;4955136;28;20447;-73
2023/09/07 07:15:45;;;;;;;8.98;7.05;;;;;;;-148.88;100.00;-17125.47;4955154;29;20098;-73
2023/09/07 07:18:11;;;;;;;15.30;7.80;;;;;;;-148.88;100.00;-17125.47;4955086;28;20051;-73
2023/09/07 07:20:37;;;;;;;11.75;7.32;;;;;;;-148.88;100.00;-17125.47;4955108;29;20027;-73
2023/09/07 07:23:03;;;;;;;11.05;7.25;;;;;;;-148.88;100.00;-17125.47;4954996;28;20068;-73
2023/09/07 07:25:31;;;;;;;10.40;7.50;;;;;;;-148.88;100.00;-17125.47;4982096;23;20501;-85
2023/09/07 07:27:56;;;;;;;11.13;6.70;;;;;;;-148.88;100.00;-17125.47;4975052;28;20106;-86
2023/09/07 07:30:21;;;;;;;9.75;7.45;;;;;;;-148.88;100.00;-17125.47;4992048;28;20457;-86
2023/09/07 07:32:47;;;;;;;9.10;6.28;;;;;;;-148.88;100.00;-17125.47;4975817;28;20027;-86
2023/09/07 07:35:13;;;;;;;12.85;7.03;;;;;;;-148.88;100.00;-17125.47;4991930;28;20030;-86
2023/09/07 07:37:38;;;;;;;8.73;6.63;;;;;;;-148.88;100.00;-17125.47;4992189;28;20042;-86
2023/09/07 07:40:04;;;;;;;10.45;6.90;;;;;;;-148.88;100.00;-17125.47;4976980;28;20027;-86
2023/09/07 07:42:30;;;;;;;9.30;6.90;;;;;;;-148.88;100.00;-17125.47;4992764;28;20026;-86
2023/09/07 07:44:55;;;;;;;9.98;7.30;;;;;;;-148.88;100.00;-17125.47;4976434;28;20018;-86
2023/09/07 07:47:20;;;;;;;10.30;7.50;;;;;;;-148.88;100.00;-17125.47;4976364;28;20521;-86
2023/09/07 07:49:46;;;;;;;9.45;7.15;;;;;;;-148.88;100.00;-17125.47;4975488;28;20557;-86
2023/09/07 07:52:11;;;;;;;7.70;6.85;;;;;;;-148.88;100.00;-17125.47;4991169;28;20031;-87
2023/09/07 07:54:37;;;;;;;8.07;6.65;;;;;;;-148.88;100.00;-17125.47;4976320;28;20035;-86
2023/09/07 07:57:03;;;;;;;11.52;6.72;;;;;;;-148.88;100.00;-17125.47;4991542;28;20026;-86
2023/09/07 07:59:28;;;;;;;7.47;5.80;;;;;;;-148.88;100.00;-17125.47;4991264;28;20031;-85
2023/09/07 08:01:53;;;;;;;7.35;5.68;;;;;;;-148.88;100.00;-17125.47;4976661;28;20030;-85
2023/09/07 08:04:19;;;;;;;7.85;6.18;;;;;;;-148.88;100.00;-17125.47;4990818;28;20038;-85
2023/09/07 08:06:44;;;;;;;9.43;5.30;;;;;;;-148.88;100.00;-17125.47;4975613;28;20027;-86
2023/09/07 08:09:10;;;;;;;8.18;5.25;;;;;;;-148.88;98.80;-17125.47;4975660;28;20054;-85
2023/09/07 08:11:36;;;;;;;7.53;4.88;;;;;;;-148.88;99.59;-17125.47;4976657;28;20035;-85
2023/09/07 08:14:02;;;;;;;7.43;4.88;;;;;;;-148.88;98.46;-17125.47;4975363;28;20023;-85
2023/09/07 08:16:27;;;;;;;6.82;5.20;;;;;;;-148.88;96.21;-17125.47;4975499;28;20023;-85
2023/09/07 08:18:53;;;;;;;6.18;4.53;;;;;;;-148.88;95.02;-17125.47;4975719;28;20027;-85
2023/09/07 08:25:00;;;;;;;;;;;;;;;;;;;;;
2023/09/07 08:27:26;;;;;;;8.10;5.13;;;;;;;-148.88;86.78;-17125.47;4965256;28;20053;-85
2023/09/07 08:29:53;;;;;;;7.20;5.00;;;;;;;-148.88;86.67;-17125.47;4975427;28;20054;-84
2023/09/07 08:32:19;;;;;;;8.98;4.90;;;;;;;-148.88;88.19;-17125.47;4975976;28;20114;-85
2023/09/07 08:34:44;;;;;;;6.78;4.60;;;;;;;-148.88;88.53;-17125.47;4974917;28;20089;-85
2023/09/07 08:37:10;;;;;;;9.48;4.70;;;;;;;-148.88;84.48;-17125.47;4975881;28;20448;-86
2023/09/07 08:39:36;;;;;;;8.77;5.05;;;;;;;-148.88;79.66;-17125.47;4978012;28;20030;-85
2023/09/07 08:42:02;;;;;;;6.30;4.45;;;;;;;-148.88;81.73;-17125.47;4975762;28;20027;-85
2023/09/07 08:44:28;;;;;;;7.65;4.57;;;;;;;-148.88;78.18;-17125.47;4974731;28;20027;-86
2023/09/07 08:46:59;;;;;;;6.05;4.28;;;;;;;-148.88;75.62;-17125.47;4990944;28;20058;-86
2023/09/07 08:49:26;;;;;;;6.75;4.25;;;;;;;-148.88;74.93;-17125.47;4974637;28;20110;-86
2023/09/07 08:52:04;;;;;;;5.50;4.47;;;;;;;-148.88;74.67;-17125.47;4991026;28;20030;-86
2023/09/07 08:54:31;;;;;;;6.97;4.35;;;;;;;-148.88;74.45;-17125.47;4991199;28;20512;-86
2023/09/07 08:57:03;;;;;;;7.93;4.10;;;;;;;-148.88;74.69;-17125.47;4974487;28;20026;-86
2023/09/07 08:59:30;;;;;;;7.25;4.10;;;;;;;-148.88;74.44;-17125.47;4974870;28;20026;-87
2023/09/07 09:01:59;;;;;;;6.97;3.97;;;;;;;-148.88;74.91;-17125.47;4975802;28;20405;-87
2023/09/07 09:04:27;;;;;;;7.03;4.03;;;;;;;-148.88;73.44;-17125.47;4991143;28;20429;-86
2023/09/07 09:06:53;;;;;;;7.57;4.18;;;;;;;-148.88;70.61;-17125.47;4975319;28;20081;-88
2023/09/07 09:09:25;;;;;;;8.75;4.13;;;;;;;-148.88;72.41;-17125.47;4990370;28;20039;-87
2023/09/07 09:11:51;;;;;;;4.82;3.70;;;;;;;-148.88;70.38;-17125.47;4990235;28;20037;-88
2023/09/07 09:14:24;;;;;;;5.07;4.28;;;;;;;-148.88;68.85;-17125.47;4973857;28;20031;-87
2023/09/07 09:16:51;;;;;;;8.25;4.03;;;;;;;-148.88;71.65;-17125.47;4974735;28;20493;-87
2023/09/07 09:19:17;;;;;;;6.90;4.38;;;;;;;-148.88;69.81;-17125.47;4974617;28;20458;-86
2023/09/07 09:21:44;;;;;;;6.60;4.40;;;;;;;-148.88;68.05;-17125.47;4973692;28;20106;-86
2023/09/07 09:24:15;;;;;;;6.10;4.00;;;;;;;-148.88;69.18;-17125.47;4974798;28;20500;-85
2023/09/07 09:26:41;;;;;;;8.00;4.50;;;;;;;-148.88;65.18;-17125.47;4973682;28;20034;-88
2023/09/07 09:29:06;;;;;;;4.80;3.75;;;;;;;-148.88;68.82;-17125.47;4973547;28;20027;-86
2023/09/07 09:31:31;;;;;;;6.95;3.92;;;;;;;-148.88;64.18;-17125.47;4989313;28;20015;-86
2023/09/07 09:33:58;;;;;;;7.30;4.03;;;;;;;-148.88;62.40;-17125.47;4974902;28;20111;-86
2023/09/07 09:36:23;;;;;;;6.90;3.92;;;;;;;-148.88;62.48;-17125.47;4974020;28;20031;-85
2023/09/07 09:38:52;;;;;;;6.03;3.63;;;;;;;-148.88;62.12;-17125.47;4992664;28;20030;-87
2023/09/07 09:41:19;;;;;;;6.88;3.65;;;;;;;-148.88;66.38;-17125.47;4993770;28;20030;-86
2023/09/07 09:43:55;;;;;;;4.93;3.55;;;;;;;-148.88;63.65;-17125.47;4993230;28;20117;-86
2023/09/07 09:46:22;;;;;;;7.35;3.78;;;;;;;-148.88;62.39;-17125.47;4977631;28;20162;-88
2023/09/07 09:48:48;;;;;;;4.65;3.80;;;;;;;-148.88;59.86;-17125.47;4976362;28;20031;-87
2023/09/07 09:51:17;;;;;;;6.93;3.80;;;;;;;-148.88;59.91;-17125.47;4976769;28;20029;-87
2023/09/07 09:53:47;;;;;;;4.45;3.65;;;;;;;-148.88;60.04;-17125.47;4975993;28;20489;-87
2023/09/07 09:56:12;;;;;;;5.35;3.75;;;;;;;-148.88;59.63;-17125.47;4976335;28;20054;-87
2023/09/07 09:58:39;;;;;;;7.00;3.58;;;;;;;-148.88;60.76;-17125.47;4992134;28;20058;-86
2023/09/07 10:01:07;;;;;;;7.20;3.45;;;;;;;-148.88;58.64;-17125.47;4976650;28;20034;-87
2023/09/07 10:03:37;;;;;;;6.57;3.50;;;;;;;-148.88;57.86;-17125.47;4975990;28;20027;-88
2023/09/07 10:06:18;;;;;;;7.07;3.80;;;;;;;-148.88;57.72;-17125.47;4992358;28;20031;-86
2023/09/07 10:08:57;;;;;;;6.45;3.60;;;;;;;-148.88;56.22;-17125.47;4992226;28;20389;-87
2023/09/07 10:11:30;;;;;;;6.68;4.00;;;;;;;-148.88;54.98;-17125.47;4992583;28;20033;-86
2023/09/07 10:14:00;;;;;;;4.35;3.50;;;;;;;-148.88;54.58;-17125.47;4976391;28;20037;-88
2023/09/07 10:16:27;;;;;;;5.38;3.33;;;;;;;-148.88;53.87;-17125.47;4976098;28;20031;-87
2023/09/07 10:18:52;;;;;;;4.80;3.63;;;;;;;-148.88;54.73;-17125.47;4976637;28;20061;-88
2023/09/07 10:21:18;;;;;;;5.63;3.30;;;;;;;-148.88;56.55;-17125.47;4977015;28;20125;-88
2023/09/07 10:23:45;;;;;;;4.65;3.40;;;;;;;-148.88;53.94;-17125.47;4991980;28;20038;-87
2023/09/07 10:26:16;;;;;;;4.90;3.28;;;;;;;-148.88;55.00;-17125.47;4976208;28;20057;-85
2023/09/07 10:28:44;;;;;;;5.18;3.72;;;;;;;-148.88;56.65;-17125.47;4976932;28;20041;-86
2023/09/07 10:31:24;;;;;;;4.35;3.42;;;;;;;-148.88;54.53;-17125.47;4975836;28;20467;-87
2023/09/07 10:33:49;;;;;;;5.78;3.53;;;;;;;-148.88;51.22;-17125.47;4975125;28;20117;-87
2023/09/07 10:36:22;;;;;;;6.15;3.38;;;;;;;-148.88;50.13;-17125.47;4991647;28;20053;-87
2023/09/07 10:38:48;;;;;;;6.20;3.65;;;;;;;-148.88;53.57;-17125.47;4992101;28;20029;-87
2023/09/07 10:41:14;;;;;;;6.18;3.72;;;;;;;-148.88;52.00;-17125.47;4976611;28;20031;-87
2023/09/07 10:43:48;;;;;;;5.90;3.50;;;;;;;-148.88;50.15;-17125.47;4976606;28;20081;-87
2023/09/07 10:46:13;;;;;;;5.85;3.63;;;;;;;-148.88;48.62;-17125.47;4975655;28;20073;-85
2023/09/07 10:48:39;;;;;;;6.05;3.90;;;;;;;-148.88;47.52;-17125.47;4976382;28;20027;-87
2023/09/07 10:51:05;;;;;;;7.63;3.72;;;;;;;-148.88;47.44;-17125.47;4975972;28;20486;-87
2023/09/07 10:53:32;;;;;;;6.35;3.40;;;;;;;-148.88;46.96;-17125.47;4992082;28;20098;-87
2023/09/07 10:56:10;;;;;;;7.65;3.60;;;;;;;-148.88;45.75;-17125.47;4992678;28;20370;-87
2023/09/07 10:58:41;;;;;;;6.38;3.38;;;;;;;-148.88;46.52;-17125.47;4976328;28;20505;-87
2023/09/07 11:01:07;;;;;;;5.32;3.38;;;;;;;-148.88;48.11;-17125.47;4976060;28;20117;-86
2023/09/07 11:03:36;;;;;;;6.45;3.80;;;;;;;-148.88;48.06;-17125.47;4991478;28;20477;-88
2023/09/07 11:06:10;;;;;;;5.82;3.75;;;;;;;-148.88;48.07;-17125.47;4991629;28;20046;-87